createdAt,value
2022-08-18T00:01:07.994Z,7.60
2022-08-18T00:03:56.824Z,8.43
2022-08-18T00:06:24.783Z,8.00
2022-08-18T00:08:58.596Z,7.43
2022-08-18T00:11:26.940Z,7.57
2022-08-18T00:13:55.457Z,7.67
2022-08-18T00:16:23.789Z,7.73
2022-08-18T00:18:52.150Z,8.17
2022-08-18T00:21:20.586Z,7.50
2022-08-18T00:23:48.964Z,8.13
2022-08-18T00:26:18.886Z,7.93
2022-08-18T00:28:47.241Z,8.67
2022-08-18T00:31:15.726Z,8.80
2022-08-18T00:33:44.708Z,8.27
2022-08-18T00:36:13.149Z,8.83
2022-08-18T00:38:41.570Z,8.40
2022-08-18T00:41:12.582Z,7.57
2022-08-18T00:43:43.915Z,7.90
2022-08-18T00:46:14.220Z,8.20
2022-08-18T00:48:48.851Z,8.50
2022-08-18T00:51:19.106Z,8.43
2022-08-18T00:53:49.679Z,7.93
2022-08-18T00:56:18.669Z,8.53
2022-08-18T00:58:49.155Z,8.03
2022-08-18T01:01:17.935Z,8.17
2022-08-18T01:03:52.082Z,8.43
2022-08-18T01:06:23.595Z,8.20
2022-08-18T01:08:51.966Z,8.73
2022-08-18T01:11:21.475Z,8.73
2022-08-18T01:13:51.249Z,8.90
2022-08-18T01:16:36.546Z,8.30
2022-08-18T01:19:22.592Z,8.70
2022-08-18T01:21:54.760Z,8.37
2022-08-18T01:24:46.563Z,8.53
2022-08-18T01:27:17.961Z,8.57
2022-08-18T01:29:46.430Z,8.80
2022-08-18T01:32:16.522Z,8.20
2022-08-18T01:34:47.812Z,8.57
2022-08-18T01:37:16.759Z,8.73
2022-08-18T01:41:21.186Z,9.00
2022-08-18T01:42:35.402Z,8.60
2022-08-18T01:45:04.631Z,8.40
2022-08-18T01:47:48.113Z,9.43
2022-08-18T01:50:20.000Z,8.97
2022-08-18T01:52:48.476Z,8.33
2022-08-18T01:55:18.326Z,8.70
2022-08-18T01:57:47.463Z,9.17
2022-08-18T02:00:16.964Z,9.33
2022-08-18T02:02:45.318Z,9.77
2022-08-18T02:05:22.286Z,9.63
2022-08-18T02:07:54.517Z,8.93
2022-08-18T02:10:24.850Z,9.53
2022-08-18T02:12:53.196Z,9.47
2022-08-18T02:15:21.750Z,9.60
2022-08-18T02:17:50.618Z,8.77
2022-08-18T02:20:19.672Z,10.03
2022-08-18T02:22:48.194Z,9.40
2022-08-18T02:25:16.934Z,9.63
2022-08-18T02:27:46.944Z,9.30
2022-08-18T02:30:16.001Z,9.77
2022-08-18T02:32:44.378Z,9.90
2022-08-18T02:35:12.842Z,10.27
2022-08-18T02:37:42.179Z,9.83
2022-08-18T02:40:15.452Z,9.67
2022-08-18T02:42:44.077Z,9.93
2022-08-18T02:45:13.941Z,9.80
2022-08-18T02:47:42.842Z,9.90
2022-08-18T02:50:12.745Z,10.10
2022-08-18T02:52:41.435Z,10.87
2022-08-18T02:55:10.376Z,10.07
2022-08-18T02:57:38.720Z,10.80
2022-08-18T03:00:08.119Z,11.57
2022-08-18T03:02:39.107Z,11.07
2022-08-18T03:05:08.279Z,11.63
2022-08-18T03:07:42.929Z,11.23
2022-08-18T03:10:31.419Z,11.10
2022-08-18T03:12:59.846Z,11.33
2022-08-18T03:15:28.216Z,11.27
2022-08-18T03:17:58.523Z,11.07
2022-08-18T03:20:30.166Z,11.50
2022-08-18T03:22:59.755Z,11.23
2022-08-18T03:25:34.127Z,10.23
2022-08-18T03:28:03.969Z,11.10
2022-08-18T03:30:32.367Z,11.07
2022-08-18T03:33:02.261Z,11.10
2022-08-18T03:35:30.613Z,11.03
2022-08-18T03:38:00.478Z,11.87
2022-08-18T03:40:28.908Z,11.40
2022-08-18T03:42:57.371Z,12.33
2022-08-18T03:45:32.002Z,11.53
2022-08-18T03:48:01.784Z,11.80
2022-08-18T03:50:30.189Z,11.67
2022-08-18T03:52:59.607Z,11.93
2022-08-18T03:55:29.249Z,11.70
2022-08-18T03:58:02.770Z,11.63
2022-08-18T04:00:31.794Z,11.83
2022-08-18T04:03:00.583Z,11.53
2022-08-18T04:05:30.415Z,11.73
2022-08-18T04:07:58.938Z,11.40
2022-08-18T04:10:27.312Z,11.50
2022-08-18T04:12:55.844Z,11.47
2022-08-18T04:15:24.609Z,11.97
2022-08-18T04:18:03.428Z,13.23
2022-08-18T04:20:34.240Z,14.80
2022-08-18T04:23:02.719Z,14.67
2022-08-18T04:25:33.483Z,15.10
2022-08-18T04:28:03.487Z,13.90
2022-08-18T04:30:32.228Z,15.80
2022-08-18T04:33:00.572Z,14.13
2022-08-18T04:35:30.004Z,14.90
2022-08-18T04:37:59.724Z,15.10
2022-08-18T04:40:29.552Z,15.50
2022-08-18T04:42:58.059Z,15.93
2022-08-18T04:45:26.594Z,16.87
2022-08-18T04:47:55.931Z,15.40
2022-08-18T04:50:25.408Z,17.20
2022-08-18T04:53:22.980Z,17.60
2022-08-18T04:55:56.881Z,17.70
2022-08-18T04:58:25.867Z,17.53
2022-08-18T05:00:58.867Z,16.90
2022-08-18T05:03:27.362Z,18.10
2022-08-18T05:05:55.945Z,17.10
2022-08-18T05:08:24.839Z,16.80
2022-08-18T05:11:03.169Z,16.60
2022-08-18T05:13:32.528Z,16.87
2022-08-18T05:16:18.195Z,16.30
2022-08-18T05:18:53.511Z,16.03
2022-08-18T05:21:22.410Z,16.17
2022-08-18T05:23:52.897Z,16.47
2022-08-18T05:26:22.603Z,16.77
2022-08-18T05:29:00.158Z,16.60
2022-08-18T05:31:39.342Z,15.97
2022-08-18T05:34:08.295Z,16.03
2022-08-18T05:36:43.486Z,16.37
2022-08-18T05:39:12.861Z,15.87
2022-08-18T05:41:43.384Z,14.93
2022-08-18T05:44:14.522Z,15.43
2022-08-18T05:46:45.300Z,15.63
2022-08-18T05:49:13.646Z,16.40
2022-08-18T05:51:46.786Z,15.43
2022-08-18T05:54:32.750Z,15.07
2022-08-18T05:57:03.202Z,15.43
2022-08-18T05:59:32.488Z,15.43
2022-08-18T06:02:02.765Z,15.27
2022-08-18T06:04:33.716Z,14.30
2022-08-18T06:07:03.703Z,14.67
2022-08-18T06:09:33.871Z,13.63
2022-08-18T06:12:08.943Z,13.23
2022-08-18T06:14:38.927Z,14.23
2022-08-18T06:17:10.061Z,13.80
2022-08-18T06:19:41.932Z,12.07
2022-08-18T06:22:13.517Z,11.53
2022-08-18T06:24:43.982Z,12.20
2022-08-18T06:27:14.962Z,11.80
2022-08-18T06:29:47.594Z,11.90
2022-08-18T06:32:17.846Z,11.50
2022-08-18T06:34:54.523Z,11.20
2022-08-18T06:37:23.955Z,9.80
2022-08-18T06:39:52.873Z,10.57
2022-08-18T06:42:30.744Z,13.20
2022-08-18T06:45:01.064Z,13.87
2022-08-18T06:47:32.669Z,14.40
2022-08-18T06:50:04.882Z,14.00
2022-08-18T06:52:33.597Z,13.93
2022-08-18T06:55:02.661Z,16.70
2022-08-18T06:57:34.681Z,13.80
2022-08-18T07:00:05.048Z,13.03
2022-08-18T07:02:42.094Z,11.50
2022-08-18T07:05:10.907Z,11.20
2022-08-18T07:07:40.957Z,10.87
2022-08-18T07:10:12.066Z,9.77
2022-08-18T07:12:41.836Z,9.77
2022-08-18T07:15:10.792Z,7.87
2022-08-18T07:17:43.449Z,8.67
2022-08-18T07:20:22.063Z,8.07
2022-08-18T07:22:54.147Z,7.67
2022-08-18T07:25:24.599Z,7.83
2022-08-18T07:27:56.250Z,8.50
2022-08-18T07:30:29.429Z,12.53
2022-08-18T07:33:02.222Z,7.60
2022-08-18T07:35:32.225Z,6.57
2022-08-18T07:38:18.801Z,6.27
2022-08-18T07:40:51.857Z,6.10
2022-08-18T07:43:24.234Z,5.70
2022-08-18T07:45:53.458Z,5.07
2022-08-18T07:48:39.926Z,5.73
2022-08-18T07:51:10.909Z,5.93
2022-08-18T07:53:42.719Z,5.40
2022-08-18T07:56:25.236Z,4.57
2022-08-18T07:58:56.116Z,4.30
2022-08-18T08:01:25.697Z,4.00
2022-08-18T08:03:55.866Z,4.00
2022-08-18T08:06:26.112Z,4.70
2022-08-18T08:08:56.977Z,4.37
2022-08-18T08:11:28.540Z,4.40
2022-08-18T08:14:02.627Z,4.50
2022-08-18T08:16:38.125Z,4.63
2022-08-18T08:19:12.188Z,4.47
2022-08-18T08:21:42.106Z,4.53
2022-08-18T08:24:12.375Z,5.47
2022-08-18T08:26:45.046Z,4.20
2022-08-18T08:29:19.423Z,4.10
2022-08-18T08:31:50.233Z,5.73
2022-08-18T08:34:19.834Z,5.37
2022-08-18T08:36:48.521Z,6.10
2022-08-18T08:39:20.411Z,3.83
2022-08-18T08:41:51.137Z,3.63
2022-08-18T08:44:22.584Z,5.73
2022-08-18T08:46:52.400Z,6.17
2022-08-18T08:49:25.574Z,3.33
2022-08-18T08:51:56.809Z,3.50
2022-08-18T08:54:26.099Z,2.70
2022-08-18T08:56:55.591Z,2.47
2022-08-18T08:59:25.779Z,2.30
2022-08-18T09:01:57.242Z,2.37
2022-08-18T09:04:30.324Z,2.63
2022-08-18T09:07:01.203Z,3.10
2022-08-18T09:09:36.749Z,3.53
2022-08-18T09:12:09.428Z,3.00
2022-08-18T09:14:58.765Z,3.03
2022-08-18T09:17:36.633Z,2.60
2022-08-18T09:20:10.179Z,2.13
2022-08-18T09:22:40.591Z,2.70
2022-08-18T09:25:10.937Z,2.27
2022-08-18T09:28:07.107Z,2.20
2022-08-18T09:30:39.580Z,2.67
2022-08-18T09:33:25.914Z,2.43
2022-08-18T09:39:18.533Z,2.63
2022-08-18T09:41:53.036Z,3.10
2022-08-18T09:44:40.178Z,2.53
2022-08-18T09:47:11.303Z,3.03
2022-08-18T09:52:57.088Z,2.40
2022-08-18T09:55:42.407Z,2.47
2022-08-18T09:58:22.981Z,2.73
2022-08-18T10:01:09.110Z,2.33
2022-08-18T10:03:37.574Z,2.30
2022-08-18T10:06:16.441Z,2.27
2022-08-18T10:08:57.069Z,2.23
2022-08-18T10:11:28.744Z,2.73
2022-08-18T10:14:01.049Z,2.07
2022-08-18T10:16:31.916Z,3.03
2022-08-18T10:19:08.144Z,2.20
2022-08-18T10:21:53.717Z,2.30
2022-08-18T10:24:36.237Z,2.10
2022-08-18T10:27:06.080Z,2.67
2022-08-18T10:29:53.194Z,2.70
2022-08-18T10:32:26.186Z,2.30
2022-08-18T10:34:55.553Z,2.37
2022-08-18T10:37:26.098Z,2.40
2022-08-18T10:39:58.083Z,2.60
2022-08-18T10:42:31.076Z,2.50
2022-08-18T10:45:06.045Z,2.30
2022-08-18T10:47:35.373Z,2.43
2022-08-18T10:50:05.691Z,2.57
2022-08-18T10:52:51.365Z,2.43
2022-08-18T10:55:48.581Z,2.27
2022-08-18T10:58:33.422Z,2.20
2022-08-18T11:01:05.522Z,2.07
2022-08-18T11:03:51.440Z,2.30
2022-08-18T11:06:22.408Z,2.40
2022-08-18T11:08:54.818Z,2.20
2022-08-18T11:11:34.192Z,2.37
2022-08-18T11:14:14.699Z,1.90
2022-08-18T11:16:46.616Z,2.20
2022-08-18T11:19:16.835Z,1.87
2022-08-18T11:21:46.136Z,2.00
2022-08-18T11:24:22.009Z,1.90
2022-08-18T11:26:53.587Z,2.10
2022-08-18T11:29:27.117Z,2.03
2022-08-18T11:31:59.598Z,2.20
2022-08-18T11:34:31.567Z,2.13
2022-08-18T11:37:00.372Z,2.20
2022-08-18T11:39:37.648Z,2.10
2022-08-18T11:42:08.255Z,2.43
2022-08-18T11:44:44.178Z,2.47
2022-08-18T11:47:15.411Z,2.57
2022-08-18T11:49:54.976Z,2.53
2022-08-18T11:52:29.502Z,2.83
2022-08-18T11:55:16.893Z,2.27
2022-08-18T12:01:01.553Z,2.50
2022-08-18T12:03:32.980Z,2.20
2022-08-18T12:06:02.540Z,2.10
2022-08-18T12:08:57.147Z,2.10
2022-08-18T12:11:27.296Z,2.17
2022-08-18T12:14:29.816Z,2.00
2022-08-18T12:16:54.079Z,2.20
2022-08-18T12:19:24.445Z,2.28
2022-08-18T12:21:53.746Z,2.20
2022-08-18T12:24:26.227Z,2.13
2022-08-18T12:27:00.921Z,2.20
2022-08-18T12:29:43.527Z,2.30
2022-08-18T12:32:18.007Z,2.03
2022-08-18T12:35:07.646Z,1.92
2022-08-18T12:38:03.579Z,2.05
2022-08-18T12:40:32.487Z,1.77
2022-08-18T12:43:01.586Z,1.80
2022-08-18T12:45:32.475Z,1.95
2022-08-18T12:48:46.223Z,1.73
2022-08-18T12:50:58.214Z,1.75
2022-08-18T12:53:30.132Z,1.90
2022-08-18T12:56:19.680Z,1.80
2022-08-18T12:58:49.806Z,1.95
2022-08-18T13:01:20.265Z,1.67
2022-08-18T13:06:54.126Z,1.98
2022-08-18T13:09:48.003Z,1.92
2022-08-18T13:12:17.374Z,1.73
2022-08-18T13:14:45.793Z,1.88
2022-08-18T13:17:29.754Z,1.83
2022-08-18T13:20:03.012Z,1.80
2022-08-18T13:22:32.734Z,2.00
2022-08-18T13:25:01.911Z,1.73
2022-08-18T13:27:33.821Z,2.03
2022-08-18T13:30:30.506Z,1.90
2022-08-18T13:33:00.323Z,1.95
2022-08-18T13:35:38.340Z,1.70
2022-08-18T13:38:18.904Z,1.90
2022-08-18T13:40:50.331Z,1.65
2022-08-18T13:43:18.860Z,2.03
2022-08-18T13:45:52.782Z,2.03
2022-08-18T13:48:23.951Z,1.90
2022-08-18T13:50:56.309Z,1.98
2022-08-18T13:53:28.588Z,2.10
2022-08-18T13:55:59.095Z,2.00
2022-08-18T13:58:27.681Z,2.30
2022-08-18T14:01:22.851Z,2.17
2022-08-18T14:03:49.851Z,2.42
2022-08-18T14:06:22.696Z,2.10
2022-08-18T14:08:52.716Z,2.72
2022-08-18T14:11:33.018Z,2.15
2022-08-18T14:14:02.549Z,1.98
2022-08-18T14:16:31.256Z,1.65
2022-08-18T14:19:18.823Z,2.13
2022-08-18T14:22:11.075Z,2.20
2022-08-18T14:24:57.653Z,2.10
2022-08-18T14:27:28.952Z,2.25
2022-08-18T14:30:04.094Z,1.90
2022-08-18T14:32:36.080Z,2.22
2022-08-18T14:36:04.392Z,1.90
2022-08-18T14:37:56.254Z,1.73
2022-08-18T14:40:25.510Z,2.10
2022-08-18T14:42:55.819Z,2.03
2022-08-18T14:45:31.390Z,2.10
2022-08-18T14:48:06.429Z,2.20
2022-08-18T14:50:37.147Z,2.00
2022-08-18T14:53:06.559Z,1.83
2022-08-18T14:55:34.962Z,1.60
2022-08-18T14:58:07.141Z,2.05
2022-08-18T15:00:35.846Z,2.33
2022-08-18T15:03:21.633Z,2.05
2022-08-18T15:06:04.375Z,1.90
2022-08-18T15:08:34.350Z,1.95
2022-08-18T15:11:06.020Z,2.10
2022-08-18T15:13:40.598Z,2.10
2022-08-18T15:16:13.748Z,1.92
2022-08-18T15:18:42.332Z,1.90
2022-08-18T15:21:35.623Z,2.33
2022-08-18T15:24:25.307Z,2.10
2022-08-18T15:26:57.550Z,2.78
2022-08-18T15:29:31.540Z,2.20
2022-08-18T15:32:02.419Z,2.13
2022-08-18T15:34:46.055Z,2.17
2022-08-18T15:37:19.601Z,2.00
2022-08-18T15:39:51.815Z,2.50
2022-08-18T15:42:24.506Z,2.50
2022-08-18T15:44:54.090Z,2.50
2022-08-18T15:47:25.264Z,2.50
2022-08-18T15:49:57.280Z,2.60
2022-08-18T15:52:27.828Z,2.30
2022-08-18T15:55:02.078Z,2.60
2022-08-18T15:57:38.841Z,2.33
2022-08-18T16:00:12.219Z,2.43
2022-08-18T16:02:44.777Z,2.70
2022-08-18T16:05:17.068Z,2.67
2022-08-18T16:07:47.687Z,5.60
2022-08-18T16:10:16.702Z,4.50
2022-08-18T16:12:45.968Z,2.30
2022-08-18T16:15:15.539Z,2.43
2022-08-18T16:17:48.697Z,2.43
2022-08-18T16:20:19.043Z,2.20
2022-08-18T16:22:49.020Z,2.30
2022-08-18T16:25:17.466Z,2.30
2022-08-18T16:27:48.002Z,2.10
2022-08-18T16:30:17.632Z,2.17
2022-08-18T16:32:47.264Z,2.50
2022-08-18T16:35:15.818Z,2.27
2022-08-18T16:37:44.384Z,2.80
2022-08-18T16:40:14.559Z,2.60
2022-08-18T16:42:43.230Z,2.40
2022-08-18T16:45:13.408Z,2.60
2022-08-18T16:47:41.831Z,2.40
2022-08-18T16:50:10.657Z,1.97
2022-08-18T16:52:39.166Z,2.43
2022-08-18T16:55:07.745Z,1.70
2022-08-18T16:57:56.120Z,1.90
2022-08-18T17:00:42.254Z,2.10
2022-08-18T17:03:28.172Z,2.53
2022-08-18T17:06:03.019Z,2.27
2022-08-18T17:08:34.231Z,2.00
2022-08-18T17:11:02.981Z,2.00
2022-08-18T17:13:32.747Z,2.20
2022-08-18T17:16:01.174Z,2.00
2022-08-18T17:18:30.718Z,2.27
2022-08-18T17:20:59.554Z,2.43
2022-08-18T17:23:27.994Z,1.90
2022-08-18T17:25:56.655Z,2.13
2022-08-18T17:28:26.405Z,1.90
2022-08-18T17:30:56.122Z,2.00
2022-08-18T17:33:24.812Z,2.03
2022-08-18T17:35:54.030Z,1.90
2022-08-18T17:38:23.565Z,1.93
2022-08-18T17:40:53.017Z,2.23
2022-08-18T17:43:22.018Z,2.10
2022-08-18T17:45:51.424Z,2.20
2022-08-18T17:48:22.962Z,1.73
2022-08-18T17:51:11.076Z,2.00
2022-08-18T17:53:39.579Z,1.90
2022-08-18T17:56:08.774Z,2.00
2022-08-18T17:58:40.514Z,1.90
2022-08-18T18:01:09.052Z,2.20
2022-08-18T18:03:38.910Z,2.17
2022-08-18T18:06:10.820Z,2.47
2022-08-18T18:08:48.939Z,2.50
2022-08-18T18:11:17.386Z,2.60
2022-08-18T18:13:46.488Z,2.90
2022-08-18T18:16:22.723Z,2.87
2022-08-18T18:19:01.017Z,2.70
2022-08-18T18:21:58.947Z,2.57
2022-08-18T18:24:23.677Z,2.63
2022-08-18T18:26:52.730Z,2.90
2022-08-18T18:29:21.951Z,2.70
2022-08-18T18:32:01.755Z,2.50
2022-08-18T18:34:32.831Z,2.40
2022-08-18T18:37:01.761Z,2.23
2022-08-18T18:39:33.855Z,2.77
2022-08-18T18:42:26.763Z,2.87
2022-08-18T18:44:55.919Z,2.60
2022-08-18T18:47:28.718Z,2.80
2022-08-18T18:50:00.130Z,2.80
2022-08-18T18:52:31.443Z,2.80
2022-08-18T18:55:01.717Z,2.77
2022-08-18T18:57:32.216Z,2.80
2022-08-18T19:00:05.699Z,3.23
2022-08-18T19:02:38.077Z,3.37
2022-08-18T19:05:10.685Z,3.50
2022-08-18T19:07:43.723Z,3.60
2022-08-18T19:10:14.887Z,3.03
2022-08-18T19:12:45.569Z,3.53
2022-08-18T19:15:15.171Z,3.60
2022-08-18T19:17:43.865Z,3.47
2022-08-18T19:20:14.921Z,3.40
2022-08-18T19:22:44.366Z,3.53
2022-08-18T19:25:14.877Z,3.50
2022-08-18T19:27:44.990Z,3.63
2022-08-18T19:30:14.375Z,3.53
2022-08-18T19:32:43.893Z,3.77
2022-08-18T19:35:16.257Z,3.40
2022-08-18T19:37:56.255Z,3.70
2022-08-18T19:40:26.108Z,3.50
2022-08-18T19:42:54.921Z,4.27
2022-08-18T19:45:29.901Z,3.80
2022-08-18T19:47:59.181Z,4.60
2022-08-18T19:50:30.833Z,6.43
2022-08-18T19:53:06.215Z,4.33
2022-08-18T19:55:37.482Z,4.40
2022-08-18T19:58:12.110Z,4.03
2022-08-18T20:00:43.312Z,3.43
2022-08-18T20:03:23.622Z,3.60
2022-08-18T20:05:57.109Z,3.53
2022-08-18T20:09:09.398Z,4.27
2022-08-18T20:11:42.429Z,4.10
2022-08-18T20:14:11.562Z,3.77
2022-08-18T20:16:43.241Z,3.47
2022-08-18T20:19:30.436Z,3.60
2022-08-18T20:22:03.625Z,3.40
2022-08-18T20:24:58.523Z,3.70
2022-08-18T20:27:36.071Z,3.40
2022-08-18T20:30:31.949Z,3.10
2022-08-18T20:33:21.495Z,3.80
2022-08-18T20:35:53.974Z,3.80
2022-08-18T20:38:33.774Z,3.97
2022-08-18T20:41:02.374Z,3.53
2022-08-18T20:43:32.324Z,3.63
2022-08-18T20:46:18.606Z,3.50
2022-08-18T20:49:06.122Z,3.90
2022-08-18T20:51:35.313Z,3.40
2022-08-18T20:54:13.159Z,4.00
2022-08-18T20:56:44.174Z,3.43
2022-08-18T20:59:18.498Z,3.70
2022-08-18T21:01:54.457Z,4.23
2022-08-18T21:04:34.361Z,4.00
2022-08-18T21:07:11.964Z,3.93
2022-08-18T21:09:42.759Z,4.10
2022-08-18T21:12:14.480Z,4.10
2022-08-18T21:14:43.321Z,4.13
2022-08-18T21:17:14.207Z,5.03
2022-08-18T21:19:43.456Z,4.43
2022-08-18T21:22:12.898Z,4.70
2022-08-18T21:24:43.251Z,4.40
2022-08-18T21:27:13.573Z,4.27
2022-08-18T21:29:49.292Z,4.10
2022-08-18T21:32:19.325Z,4.50
2022-08-18T21:34:47.811Z,3.90
2022-08-18T21:37:18.071Z,4.10
2022-08-18T21:39:53.276Z,4.60
2022-08-18T21:42:23.855Z,4.40
2022-08-18T21:44:54.987Z,5.07
2022-08-18T21:47:24.828Z,4.60
2022-08-18T21:50:04.112Z,4.40
2022-08-18T21:52:33.219Z,4.90
2022-08-18T21:55:03.581Z,4.80
2022-08-18T21:57:48.494Z,4.70
2022-08-18T22:00:23.328Z,5.27
2022-08-18T22:02:52.570Z,5.50
2022-08-18T22:05:31.000Z,4.90
2022-08-18T22:08:26.070Z,5.53
2022-08-18T22:12:00.023Z,5.80
2022-08-18T22:14:35.961Z,5.77
2022-08-18T22:17:41.506Z,5.17
2022-08-18T22:20:30.906Z,5.17
2022-08-18T22:23:18.885Z,6.40
2022-08-18T22:25:47.419Z,6.40
2022-08-18T22:28:17.515Z,5.33
2022-08-18T22:30:46.384Z,4.77
2022-08-18T22:33:14.758Z,5.17
2022-08-18T22:35:45.139Z,5.77
2022-08-18T22:38:15.474Z,5.93
2022-08-18T22:40:44.220Z,5.83
2022-08-18T22:43:14.573Z,6.17
2022-08-18T22:45:45.140Z,5.90
2022-08-18T22:48:14.472Z,5.97
2022-08-18T22:50:46.356Z,5.90
2022-08-18T22:53:15.171Z,6.17
2022-08-18T22:55:43.625Z,6.40
2022-08-18T22:58:15.972Z,6.33
2022-08-18T23:00:50.214Z,6.70
2022-08-18T23:03:19.092Z,6.90
2022-08-18T23:05:48.634Z,7.10
2022-08-18T23:08:18.422Z,7.13
2022-08-18T23:11:04.125Z,6.93
2022-08-18T23:13:37.873Z,6.70
2022-08-18T23:16:31.513Z,7.80
2022-08-18T23:19:02.105Z,7.97
2022-08-18T23:21:34.466Z,7.73
2022-08-18T23:24:04.783Z,8.87
2022-08-18T23:26:34.127Z,8.70
2022-08-18T23:29:03.187Z,8.70
2022-08-18T23:31:33.119Z,8.97
2022-08-18T23:34:01.607Z,10.07
2022-08-18T23:36:30.045Z,8.70
2022-08-18T23:38:58.769Z,7.90
2022-08-18T23:41:30.165Z,8.87
2022-08-18T23:43:59.792Z,8.00
2022-08-18T23:46:29.105Z,7.60
2022-08-18T23:48:59.248Z,7.50
2022-08-18T23:51:29.310Z,7.90
2022-08-18T23:53:58.956Z,7.63
2022-08-18T23:56:28.540Z,7.57
2022-08-18T23:58:57.403Z,7.10
